Lone Star, Idaho
Current Conditions -  °F | °C
As of 1:53 PM on Monday 22 Dec 2014 (Local Time) from KJER Reporting Station
Broken Clouds Broken Clouds  
Wind Chill: 30°   Ceiling: 1900
Heat Index: 41°   Visibility: 10mi
Dew Point: 35°   Wind: 28mph
Humidity: 79%   Direction: 260°W
Pressure: 30.08"   Gusts: 40mph
Location:  42.9609°N, 114.301°W
Report Text: KJER 222053Z AUTO 26024G35KT 10SM SCT013 BKN019 BKN023 05/02 A3008 RMK AO2 PK WND 26038/2007 SLP199 T00500017 55002
Loading
Personal Weather Stations






























Interactive Weather Map New forecast layout! Learn more

10-Day Weather Forecast

Advertisements
Track Severe Weather on mobile